»·PEaware :: N5268J KSBP-KSBP

N5268J :: KSBP-KSBP

FLIGHT INFORMATION

Flight Status: Arrived
Operator: Privately registered:
United States
More flights under this callsign
Pilot: John P. (31881)
Aircraft: BEECH AIRCRAFT BONANZA
(BE36)
More flights by this aircraft type
Origin: KSBP San Luis Co Regl
United States
Destination: KSBP San Luis Co Regl
United States
More flights between these airports :: More routes between these airports
Route:
File this flight plan on PilotEdge
Remarks: Pattern Work
Altitude:
(Current/Filed)
1,203ft
Speed:
(Current/Filed)
115kts
Departed: 16-Oct-20 04:02 PM
Arrived: 16-Oct-20 04:22 PM
Distance/Time
Traveled:
6877nm/0:19
Distance/Time
To Go:
Arrived

Flight Plot

Page will automatically refresh every two minutes.


Map Options




Map Legend


Flown Route
Filed Route
Departure Airport
Arrival Airport
Navaid (VOR, NDB)
Fix

Horizontal Profiles

Position Reports

Time Latitude Longitude Heading Altitude Ground
Speed
16-Oct-20 15:18 0.000408 0.013975 0 3ft 0kts
16-Oct-20 15:19 0.000408 0.013975 0 3ft 0kts
16-Oct-20 15:20 0.000408 0.013975 0 3ft 0kts
16-Oct-20 15:22 35.236056 -120.635850 30 205ft 0kts
16-Oct-20 15:23 35.236056 -120.635850 30 205ft 0kts
16-Oct-20 15:24 35.236056 -120.635850 30 205ft 0kts
16-Oct-20 15:25 35.236056 -120.635850 30 205ft 0kts
16-Oct-20 15:26 35.236056 -120.635850 30 205ft 0kts
16-Oct-20 15:27 35.236057 -120.635849 30 205ft 0kts
16-Oct-20 15:28 35.236057 -120.635849 30 205ft 0kts
16-Oct-20 15:29 35.236057 -120.635849 30 205ft 0kts
16-Oct-20 15:30 35.236057 -120.635849 30 205ft 0kts
16-Oct-20 15:31 35.236057 -120.635849 30 205ft 0kts
16-Oct-20 15:32 35.236057 -120.635849 30 205ft 0kts
16-Oct-20 15:33 35.236057 -120.635849 30 205ft 0kts
16-Oct-20 15:34 35.236057 -120.635849 30 205ft 0kts
16-Oct-20 15:35 35.236057 -120.635849 30 205ft 0kts
16-Oct-20 15:36 35.236057 -120.635849 30 205ft 0kts
16-Oct-20 15:37 35.236057 -120.635849 30 205ft 0kts
16-Oct-20 15:38 35.236057 -120.635849 30 205ft 0kts
16-Oct-20 15:39 35.236057 -120.635849 30 205ft 0kts
16-Oct-20 15:40 35.236057 -120.635849 30 205ft 0kts
16-Oct-20 15:41 35.236057 -120.635849 30 205ft 0kts
16-Oct-20 15:42 35.236057 -120.635849 30 205ft 0kts
16-Oct-20 15:43 35.236058 -120.635849 30 205ft 0kts
16-Oct-20 15:44 35.236058 -120.635849 30 205ft 0kts
16-Oct-20 15:45 35.236058 -120.635849 30 205ft 0kts
16-Oct-20 15:46 35.236058 -120.635849 30 205ft 0kts
16-Oct-20 15:47 35.236058 -120.635849 30 205ft 0kts
16-Oct-20 15:48 35.236058 -120.635849 30 205ft 0kts
16-Oct-20 15:49 35.236058 -120.635849 30 205ft 0kts
16-Oct-20 15:50 35.236058 -120.635849 30 205ft 0kts
16-Oct-20 15:51 35.236058 -120.635849 30 205ft 0kts
16-Oct-20 15:52 35.236058 -120.635849 30 205ft 0kts
16-Oct-20 15:53 35.236058 -120.635849 30 205ft 0kts
16-Oct-20 15:54 35.236058 -120.635849 30 205ft 0kts
16-Oct-20 15:55 35.236058 -120.635849 30 205ft 0kts
16-Oct-20 15:56 35.236058 -120.635849 30 205ft 0kts
16-Oct-20 15:57 35.236058 -120.635849 30 205ft 0kts
16-Oct-20 15:58 35.236058 -120.635849 30 205ft 0kts
16-Oct-20 15:59 35.234360 -120.633886 124 213ft 23kts
16-Oct-20 16:00 35.233310 -120.632420 187 218ft 0kts
16-Oct-20 16:01 35.238824 -120.643419 306 259ft 103kts
16-Oct-20 16:02 35.261743 -120.677623 281 1027ft 140kts
16-Oct-20 16:03 35.229966 -120.704849 194 1522ft 161kts
16-Oct-20 16:04 35.206033 -120.663398 113 1457ft 147kts
16-Oct-20 16:05 35.193820 -120.618875 40 1318ft 129kts
16-Oct-20 16:06 35.222463 -120.615873 309 882ft 117kts
16-Oct-20 16:07 35.238661 -120.643295 303 184ft 82kts
16-Oct-20 16:08 35.248798 -120.671259 207 1189ft 108kts
16-Oct-20 16:09 35.222717 -120.659382 127 1583ft 135kts
16-Oct-20 16:10 35.201084 -120.626299 87 1351ft 130kts
16-Oct-20 16:11 35.224143 -120.617928 295 733ft 112kts
16-Oct-20 16:12 35.240659 -120.647074 305 303ft 104kts
16-Oct-20 16:13 35.246943 -120.681114 211 1305ft 134kts
16-Oct-20 16:14 35.219779 -120.661161 116 1335ft 136kts
16-Oct-20 16:15 35.200766 -120.623917 91 1137ft 129kts
16-Oct-20 16:16 35.225681 -120.621453 306 1008ft 155kts
16-Oct-20 16:17 35.250562 -120.666609 302 1009ft 158kts
16-Oct-20 16:18 35.224971 -120.683777 115 1171ft 164kts
16-Oct-20 16:19 35.201695 -120.639609 129 1558ft 151kts
16-Oct-20 16:20 35.218396 -120.611277 335 1062ft 121kts
16-Oct-20 16:21 35.236440 -120.639304 309 198ft 36kts
16-Oct-20 16:22 35.236716 -120.638006 126 199ft 26kts
16-Oct-20 16:23 35.236372 -120.636233 60 203ft 0kts
16-Oct-20 16:24 0.000408 0.013975 0 3ft 0kts
16-Oct-20 16:25 0.000408 0.013975 0 3ft 0kts
16-Oct-20 16:26 0.000408 0.013975 0 3ft 0kts
16-Oct-20 16:27 0.000408 0.013975 0 3ft 0kts
16-Oct-20 16:28 0.000408 0.013975 0 3ft 0kts
16-Oct-20 16:29 0.000408 0.013975 0 3ft 0kts
16-Oct-20 16:30 0.000408 0.013975 0 3ft 0kts
16-Oct-20 16:31 0.000408 0.013975 0 3ft 0kts
16-Oct-20 16:32 0.000408 0.013975 0 3ft 0kts
16-Oct-20 16:33 0.000408 0.013975 0 3ft 0kts
16-Oct-20 16:34 0.000408 0.013975 0 3ft 0kts
16-Oct-20 16:35 0.000408 0.013975 0 3ft 0kts

Navigation Log

Ident Type
Flight plan parsing failed, navigation log unavailable